createdAt,value
2023-03-28T00:01:35.599Z,10.40
2023-03-28T00:04:24.225Z,10.40
2023-03-28T00:07:10.571Z,10.30
2023-03-28T00:09:57.736Z,10.80
2023-03-28T00:12:44.357Z,10.20
2023-03-28T00:15:31.177Z,10.10
2023-03-28T00:18:17.443Z,10.00
2023-03-28T00:21:08.545Z,10.10
2023-03-28T00:23:57.224Z,10.20
2023-03-28T00:26:45.805Z,10.20
2023-03-28T00:29:32.080Z,10.10
2023-03-28T00:32:17.894Z,10.00
2023-03-28T00:35:04.702Z,9.80
2023-03-28T00:37:58.260Z,9.60
2023-03-28T00:40:46.323Z,9.60
2023-03-28T00:43:41.620Z,9.70
2023-03-28T00:46:42.286Z,9.70
2023-03-28T00:49:28.294Z,9.70
2023-03-28T00:52:18.124Z,9.60
2023-03-28T00:55:05.252Z,9.80
2023-03-28T00:57:53.158Z,9.80
2023-03-28T01:00:46.905Z,9.80
2023-03-28T01:03:35.829Z,9.70
2023-03-28T01:06:26.307Z,9.50
2023-03-28T01:09:13.943Z,9.40
2023-03-28T01:12:06.121Z,9.40
2023-03-28T01:14:52.501Z,9.40
2023-03-28T01:17:41.694Z,9.50
2023-03-28T01:20:49.926Z,9.40
2023-03-28T01:24:11.507Z,9.40
2023-03-28T01:27:29.971Z,9.40
2023-03-28T01:30:34.303Z,9.30
2023-03-28T01:33:59.122Z,9.50
2023-03-28T01:37:07.125Z,9.30
2023-03-28T01:40:26.405Z,9.30
2023-03-28T01:43:39.229Z,9.30
2023-03-28T01:46:53.832Z,9.30
2023-03-28T01:49:47.379Z,9.20
2023-03-28T01:52:45.174Z,9.20
2023-03-28T01:55:49.561Z,9.10
2023-03-28T01:58:45.473Z,9.10
2023-03-28T02:01:51.339Z,9.00
2023-03-28T02:04:42.121Z,9.00
2023-03-28T02:07:29.595Z,9.00
2023-03-28T02:10:29.700Z,8.90
2023-03-28T02:13:46.704Z,8.90
2023-03-28T02:16:55.005Z,9.00
2023-03-28T02:20:09.197Z,8.90
2023-03-28T02:23:25.093Z,8.90
2023-03-28T02:26:41.132Z,8.90
2023-03-28T02:29:54.588Z,8.70
2023-03-28T02:33:02.287Z,8.70
2023-03-28T02:36:05.077Z,8.60
2023-03-28T02:39:28.004Z,8.50
2023-03-28T02:42:14.183Z,8.50
2023-03-28T02:45:24.654Z,8.50
2023-03-28T02:48:18.665Z,8.60
2023-03-28T02:51:31.851Z,8.60
2023-03-28T02:54:24.004Z,8.70
2023-03-28T02:57:38.643Z,8.60
2023-03-28T03:00:26.933Z,8.80
2023-03-28T03:03:14.239Z,8.80
2023-03-28T03:06:01.455Z,8.70
2023-03-28T03:08:48.041Z,8.60
2023-03-28T03:11:34.618Z,8.50
2023-03-28T03:14:21.147Z,8.40
2023-03-28T03:17:07.536Z,8.40
2023-03-28T03:19:53.498Z,8.40
2023-03-28T03:22:39.475Z,8.40
2023-03-28T03:25:27.066Z,8.40
2023-03-28T03:28:50.733Z,8.30
2023-03-28T03:31:37.273Z,8.40
2023-03-28T03:34:49.660Z,8.30
2023-03-28T03:37:36.154Z,8.40
2023-03-28T03:40:22.132Z,8.40
2023-03-28T03:43:09.588Z,8.40
2023-03-28T03:45:58.048Z,8.30
2023-03-28T03:48:49.256Z,8.20
2023-03-28T03:51:36.619Z,8.20
2023-03-28T03:54:22.622Z,8.20
2023-03-28T03:57:09.199Z,8.20
2023-03-28T03:59:57.215Z,8.20
2023-03-28T04:02:44.872Z,8.10
2023-03-28T04:05:31.621Z,8.20
2023-03-28T04:08:23.498Z,8.10
2023-03-28T04:11:10.752Z,8.10
2023-03-28T04:14:02.142Z,8.10
2023-03-28T04:16:51.103Z,8.10
2023-03-28T04:19:40.796Z,8.00
2023-03-28T04:22:30.079Z,8.00
2023-03-28T04:25:17.880Z,8.10
2023-03-28T04:28:04.174Z,8.20
2023-03-28T04:30:59.980Z,7.90
2023-03-28T04:33:46.723Z,8.00
2023-03-28T04:36:37.725Z,8.00
2023-03-28T04:39:27.124Z,7.80
2023-03-28T04:42:31.817Z,7.80
2023-03-28T04:45:39.492Z,7.70
2023-03-28T04:48:35.446Z,7.90
2023-03-28T04:51:22.096Z,7.90
2023-03-28T04:54:08.369Z,7.80
2023-03-28T04:57:06.565Z,7.70
2023-03-28T05:00:06.404Z,7.70
2023-03-28T05:03:18.739Z,7.60
2023-03-28T05:07:11.931Z,7.40
2023-03-28T05:09:58.504Z,6.90
2023-03-28T05:12:51.980Z,7.20
2023-03-28T05:15:38.005Z,7.30
2023-03-28T05:18:38.071Z,7.30
2023-03-28T05:21:24.860Z,7.40
2023-03-28T05:24:11.515Z,7.50
2023-03-28T05:26:57.153Z,7.60
2023-03-28T05:29:43.979Z,7.60
2023-03-28T05:32:31.470Z,7.70
2023-03-28T05:35:17.419Z,7.60
2023-03-28T05:38:05.212Z,7.70
2023-03-28T05:40:51.945Z,7.70
2023-03-28T05:43:37.771Z,7.60
2023-03-28T05:46:23.895Z,7.60
2023-03-28T05:49:10.312Z,7.50
2023-03-28T05:51:56.219Z,7.60
2023-03-28T05:54:42.142Z,8.00
2023-03-28T05:57:37.162Z,7.80
2023-03-28T06:00:24.554Z,8.00
2023-03-28T06:03:17.259Z,8.10
2023-03-28T06:06:09.280Z,8.20
2023-03-28T06:08:56.017Z,8.40
2023-03-28T06:11:43.115Z,8.70
2023-03-28T06:14:31.826Z,8.80
2023-03-28T06:17:21.907Z,9.00
2023-03-28T06:20:11.719Z,9.20
2023-03-28T06:22:57.646Z,9.30
2023-03-28T06:25:44.695Z,9.40
2023-03-28T06:28:33.797Z,9.50
2023-03-28T06:31:40.236Z,8.10
2023-03-28T06:34:26.632Z,10.00
2023-03-28T06:37:18.863Z,10.20
2023-03-28T06:40:16.616Z,10.50
2023-03-28T06:43:02.832Z,10.80
2023-03-28T06:46:03.320Z,11.00
2023-03-28T06:48:51.995Z,11.20
2023-03-28T06:51:44.706Z,11.50
2023-03-28T06:54:31.252Z,11.70
2023-03-28T06:57:18.906Z,11.60
2023-03-28T07:00:08.891Z,11.60
2023-03-28T07:03:17.600Z,11.70
2023-03-28T07:06:08.446Z,11.80
2023-03-28T07:08:59.583Z,12.00
2023-03-28T07:12:06.182Z,11.90
2023-03-28T07:14:52.614Z,12.00
2023-03-28T07:17:38.192Z,12.10
2023-03-28T07:20:25.352Z,12.10
2023-03-28T07:23:11.880Z,12.20
2023-03-28T07:25:58.100Z,12.60
2023-03-28T07:28:44.422Z,12.60
2023-03-28T07:31:31.348Z,12.80
2023-03-28T07:34:19.569Z,12.80
2023-03-28T07:37:06.020Z,12.40
2023-03-28T07:40:21.457Z,12.90
2023-03-28T07:43:07.150Z,12.70
2023-03-28T07:45:59.365Z,12.60
2023-03-28T07:48:46.718Z,12.60
2023-03-28T07:51:33.344Z,12.70
2023-03-28T07:54:19.969Z,13.10
2023-03-28T07:57:07.263Z,13.30
2023-03-28T08:00:24.432Z,13.80
2023-03-28T08:03:30.906Z,14.70
2023-03-28T08:06:31.482Z,15.10
2023-03-28T08:09:19.821Z,16.90
2023-03-28T08:12:09.600Z,16.60
2023-03-28T08:14:56.008Z,16.30
2023-03-28T08:17:42.448Z,17.30
2023-03-28T08:20:28.522Z,17.60
2023-03-28T08:23:23.108Z,17.80
2023-03-28T08:26:28.789Z,17.00
2023-03-28T08:29:15.845Z,17.10
2023-03-28T08:32:02.139Z,16.80
2023-03-28T08:34:48.479Z,16.60
2023-03-28T08:37:36.800Z,16.80
2023-03-28T08:40:27.383Z,17.80
2023-03-28T08:43:30.578Z,19.30
2023-03-28T08:46:19.248Z,20.90
2023-03-28T08:49:12.147Z,19.80
2023-03-28T08:52:05.414Z,19.80
2023-03-28T08:54:56.311Z,19.70
2023-03-28T08:57:45.735Z,20.30
2023-03-28T09:00:39.163Z,20.50
2023-03-28T09:03:25.906Z,20.60
2023-03-28T09:06:41.466Z,19.60
2023-03-28T09:09:45.587Z,20.10
2023-03-28T09:13:07.059Z,20.30
2023-03-28T09:16:24.329Z,21.40
2023-03-28T09:20:11.620Z,20.10
2023-03-28T09:23:26.361Z,21.90
2023-03-28T09:26:36.439Z,22.60
2023-03-28T09:29:29.016Z,22.70
2023-03-28T09:32:28.260Z,22.80
2023-03-28T09:35:18.403Z,22.90
2023-03-28T09:38:13.579Z,23.00
2023-03-28T09:41:03.769Z,23.70
2023-03-28T09:44:01.650Z,24.70
2023-03-28T09:47:12.744Z,24.90
2023-03-28T09:50:17.380Z,24.10
2023-03-28T09:53:06.756Z,23.20
2023-03-28T09:56:04.226Z,23.30
2023-03-28T09:58:59.880Z,24.60
2023-03-28T10:02:05.462Z,26.60
2023-03-28T10:04:57.384Z,27.50
2023-03-28T10:08:24.440Z,27.60
2023-03-28T10:11:49.415Z,27.20
2023-03-28T10:14:36.745Z,27.00
2023-03-28T10:17:31.408Z,26.50
2023-03-28T10:20:22.068Z,26.50
2023-03-28T10:23:14.035Z,26.20
2023-03-28T10:26:04.301Z,26.70
2023-03-28T10:28:57.731Z,26.10
2023-03-28T10:31:50.998Z,24.60
2023-03-28T10:35:20.542Z,24.90
2023-03-28T10:38:19.218Z,25.50
2023-03-28T10:41:26.805Z,26.20
2023-03-28T10:44:40.584Z,25.60
2023-03-28T10:47:32.132Z,25.20
2023-03-28T10:50:51.897Z,26.60
2023-03-28T10:53:56.807Z,27.10
2023-03-28T10:56:53.442Z,26.90
2023-03-28T10:59:56.081Z,27.20
2023-03-28T11:02:55.616Z,28.40
2023-03-28T11:06:05.779Z,28.50
2023-03-28T11:09:02.437Z,28.30
2023-03-28T11:12:28.290Z,28.40
2023-03-28T11:15:30.629Z,27.70
2023-03-28T11:18:46.582Z,28.00
2023-03-28T11:21:52.534Z,27.60
2023-03-28T11:24:52.792Z,27.10
2023-03-28T11:28:29.364Z,24.40
2023-03-28T11:31:38.427Z,23.50
2023-03-28T11:34:40.178Z,23.40
2023-03-28T11:37:37.935Z,23.60
2023-03-28T11:40:48.793Z,25.50
2023-03-28T11:43:46.794Z,25.70
2023-03-28T11:46:39.590Z,25.90
2023-03-28T11:49:50.965Z,26.20
2023-03-28T11:53:09.697Z,25.20
2023-03-28T11:56:33.578Z,23.40
2023-03-28T11:59:35.325Z,25.90
2023-03-28T12:02:30.385Z,26.00
2023-03-28T12:05:43.975Z,23.90
2023-03-28T12:08:54.482Z,24.60
2023-03-28T12:11:51.054Z,24.60
2023-03-28T12:15:15.545Z,24.40
2023-03-28T12:18:45.459Z,22.30
2023-03-28T12:21:51.857Z,19.90
2023-03-28T12:24:49.873Z,19.30
2023-03-28T12:27:56.238Z,18.80
2023-03-28T12:31:01.834Z,18.70
2023-03-28T12:34:00.582Z,18.80
2023-03-28T12:37:37.749Z,18.50
2023-03-28T12:40:42.535Z,18.30
2023-03-28T12:44:08.237Z,18.20
2023-03-28T12:47:21.248Z,18.20
2023-03-28T12:50:19.668Z,18.00
2023-03-28T12:53:10.907Z,17.30
2023-03-28T12:56:02.669Z,17.10
2023-03-28T12:58:53.156Z,17.30
2023-03-28T13:01:54.532Z,17.30
2023-03-28T13:05:09.455Z,17.20
2023-03-28T13:08:08.281Z,17.50
2023-03-28T13:11:03.285Z,17.30
2023-03-28T13:14:08.352Z,17.10
2023-03-28T13:17:21.937Z,17.70
2023-03-28T13:20:26.261Z,17.00
2023-03-28T13:23:15.602Z,16.90
2023-03-28T13:26:04.901Z,16.90
2023-03-28T13:28:59.362Z,16.90
2023-03-28T13:31:45.404Z,17.20
2023-03-28T13:34:33.909Z,17.10
2023-03-28T13:37:25.970Z,17.10
2023-03-28T13:40:51.419Z,17.10
2023-03-28T13:43:51.603Z,17.10
2023-03-28T13:46:43.313Z,17.20
2023-03-28T13:49:39.109Z,17.10
2023-03-28T13:52:25.502Z,16.50
2023-03-28T13:55:23.795Z,17.10
2023-03-28T13:58:13.125Z,17.50
2023-03-28T14:01:26.382Z,17.70
2023-03-28T14:04:25.726Z,17.70
2023-03-28T14:07:13.564Z,17.60
2023-03-28T14:09:59.599Z,17.40
2023-03-28T14:12:46.405Z,17.20
2023-03-28T14:15:36.970Z,17.00
2023-03-28T14:18:36.812Z,17.00
2023-03-28T14:21:26.579Z,17.00
2023-03-28T14:24:20.135Z,17.00
2023-03-28T14:27:11.184Z,17.20
2023-03-28T14:30:00.022Z,16.90
2023-03-28T14:33:08.591Z,17.20
2023-03-28T14:36:03.977Z,16.90
2023-03-28T14:38:50.126Z,16.70
2023-03-28T14:41:37.630Z,17.00
2023-03-28T14:44:24.027Z,16.80
2023-03-28T14:47:23.851Z,16.70
2023-03-28T14:50:17.331Z,16.60
2023-03-28T14:53:09.516Z,16.90
2023-03-28T14:56:02.224Z,17.10
2023-03-28T14:58:51.391Z,17.00
2023-03-28T15:01:38.140Z,16.90
2023-03-28T15:04:26.553Z,16.90
2023-03-28T15:07:26.520Z,17.20
2023-03-28T15:10:23.791Z,17.40
2023-03-28T15:13:20.857Z,17.60
2023-03-28T15:16:15.505Z,17.70
2023-03-28T15:19:08.434Z,17.60
2023-03-28T15:21:58.380Z,17.30
2023-03-28T15:24:45.216Z,17.20
2023-03-28T15:27:35.304Z,17.10
2023-03-28T15:30:21.976Z,17.40
2023-03-28T15:33:08.729Z,17.40
2023-03-28T15:36:16.223Z,17.50
2023-03-28T15:39:21.793Z,17.30
2023-03-28T15:42:37.316Z,17.30
2023-03-28T15:45:35.663Z,17.60
2023-03-28T15:48:21.469Z,17.40
2023-03-28T15:51:14.790Z,17.20
2023-03-28T15:54:00.738Z,17.30
2023-03-28T15:56:48.513Z,16.70
2023-03-28T15:59:45.315Z,16.80
2023-03-28T16:02:33.762Z,17.10
2023-03-28T16:05:23.285Z,17.30
2023-03-28T16:08:25.637Z,17.50
2023-03-28T16:11:18.618Z,17.60
2023-03-28T16:14:23.952Z,17.00
2023-03-28T16:17:33.543Z,16.90
2023-03-28T16:20:42.902Z,16.80
2023-03-28T16:23:30.288Z,16.90
2023-03-28T16:26:16.447Z,16.60
2023-03-28T16:29:04.121Z,16.90
2023-03-28T16:31:49.946Z,16.30
2023-03-28T16:34:35.610Z,15.90
2023-03-28T16:37:21.939Z,16.00
2023-03-28T16:40:09.191Z,16.00
2023-03-28T16:42:55.744Z,15.90
2023-03-28T16:45:45.268Z,14.80
2023-03-28T16:48:32.754Z,16.20
2023-03-28T16:51:18.978Z,16.70
2023-03-28T16:54:05.130Z,16.50
2023-03-28T16:56:51.321Z,16.70
2023-03-28T16:59:37.430Z,16.70
2023-03-28T17:02:23.905Z,16.50
2023-03-28T17:05:09.951Z,16.50
2023-03-28T17:07:56.333Z,16.20
2023-03-28T17:10:43.805Z,16.30
2023-03-28T17:13:29.858Z,16.50
2023-03-28T17:16:16.241Z,16.80
2023-03-28T17:19:03.094Z,16.80
2023-03-28T17:21:50.616Z,16.70
2023-03-28T17:24:36.613Z,16.60
2023-03-28T17:27:23.434Z,16.50
2023-03-28T17:30:11.723Z,16.30
2023-03-28T17:32:58.157Z,16.40
2023-03-28T17:35:45.184Z,16.60
2023-03-28T17:38:31.085Z,16.40
2023-03-28T17:41:18.098Z,16.20
2023-03-28T17:44:09.287Z,16.10
2023-03-28T17:46:56.932Z,15.90
2023-03-28T17:49:43.319Z,15.90
2023-03-28T17:52:32.325Z,16.20
2023-03-28T17:55:18.797Z,16.30
2023-03-28T17:58:05.168Z,16.30
2023-03-28T18:00:51.168Z,16.30
2023-03-28T18:03:37.902Z,16.30
2023-03-28T18:06:44.648Z,16.00
2023-03-28T18:09:30.704Z,15.90
2023-03-28T18:12:16.585Z,15.60
2023-03-28T18:15:04.801Z,15.70
2023-03-28T18:17:51.283Z,15.60
2023-03-28T18:20:38.091Z,15.70
2023-03-28T18:23:25.102Z,15.60
2023-03-28T18:26:12.200Z,15.60
2023-03-28T18:28:58.602Z,15.50
2023-03-28T18:31:44.741Z,15.50
2023-03-28T18:34:31.011Z,15.40
2023-03-28T18:37:17.202Z,15.20
2023-03-28T18:40:07.153Z,15.10
2023-03-28T18:42:53.120Z,15.10
2023-03-28T18:45:39.036Z,15.00
2023-03-28T18:48:25.084Z,14.50
2023-03-28T18:51:11.960Z,14.20
2023-03-28T18:53:58.664Z,14.40
2023-03-28T18:56:44.703Z,14.30
2023-03-28T18:59:31.146Z,14.20
2023-03-28T19:02:17.789Z,14.40
2023-03-28T19:05:04.211Z,14.40
2023-03-28T19:07:50.764Z,14.10
2023-03-28T19:10:36.811Z,14.10
2023-03-28T19:13:23.965Z,14.10
2023-03-28T19:16:14.874Z,14.10
2023-03-28T19:19:01.489Z,13.90
2023-03-28T19:21:47.633Z,13.90
2023-03-28T19:24:34.066Z,13.80
2023-03-28T19:27:19.896Z,13.40
2023-03-28T19:30:08.564Z,13.30
2023-03-28T19:32:55.634Z,13.30
2023-03-28T19:35:42.603Z,13.40
2023-03-28T19:38:30.939Z,13.50
2023-03-28T19:41:20.039Z,13.30
2023-03-28T19:45:35.647Z,13.20
2023-03-28T19:48:21.538Z,12.90
2023-03-28T19:51:07.544Z,13.30
2023-03-28T19:53:54.567Z,13.00
2023-03-28T19:56:40.545Z,12.80
2023-03-28T19:59:26.996Z,13.00
2023-03-28T20:02:13.252Z,13.10
2023-03-28T20:04:59.409Z,13.00
2023-03-28T20:07:45.090Z,13.00
2023-03-28T20:10:31.343Z,12.90
2023-03-28T20:13:17.884Z,12.90
2023-03-28T20:16:06.392Z,12.80
2023-03-28T20:18:54.978Z,12.90
2023-03-28T20:21:41.122Z,12.90
2023-03-28T20:24:27.177Z,13.00
2023-03-28T20:27:13.739Z,13.00
2023-03-28T20:30:02.229Z,12.90
2023-03-28T20:32:49.624Z,12.90
2023-03-28T20:35:36.076Z,12.90
2023-03-28T20:38:22.170Z,12.70
2023-03-28T20:41:17.036Z,12.60
2023-03-28T20:44:05.910Z,12.50
2023-03-28T20:46:52.123Z,12.50
2023-03-28T20:49:46.538Z,12.60
2023-03-28T20:52:39.399Z,12.00
2023-03-28T20:55:26.288Z,12.50
2023-03-28T20:58:12.496Z,12.40
2023-03-28T21:01:02.548Z,12.30
2023-03-28T21:03:49.858Z,12.20
2023-03-28T21:06:38.479Z,12.30
2023-03-28T21:09:25.212Z,12.20
2023-03-28T21:12:11.170Z,13.70
2023-03-28T21:14:56.910Z,12.30
2023-03-28T21:17:43.514Z,12.50
2023-03-28T21:20:29.399Z,12.50
2023-03-28T21:23:16.191Z,12.70
2023-03-28T21:26:02.298Z,12.90
2023-03-28T21:28:48.864Z,11.70
2023-03-28T21:31:35.100Z,12.80
2023-03-28T21:34:32.726Z,13.00
2023-03-28T21:37:18.205Z,12.90
2023-03-28T21:40:07.393Z,12.80
2023-03-28T21:42:52.976Z,12.50
2023-03-28T21:45:39.053Z,12.40
2023-03-28T21:48:25.549Z,12.30
2023-03-28T21:51:12.206Z,12.30
2023-03-28T21:53:58.299Z,12.40
2023-03-28T21:56:45.636Z,12.20
2023-03-28T21:59:31.535Z,12.00
2023-03-28T22:02:17.636Z,11.80
2023-03-28T22:05:03.762Z,11.70
2023-03-28T22:07:50.543Z,11.40
2023-03-28T22:10:37.856Z,11.50
2023-03-28T22:13:24.103Z,11.50
2023-03-28T22:16:10.255Z,11.60
2023-03-28T22:18:57.178Z,11.60
2023-03-28T22:21:44.513Z,11.80
2023-03-28T22:24:30.683Z,11.60
2023-03-28T22:27:16.563Z,11.80
2023-03-28T22:30:02.735Z,12.10
2023-03-28T22:32:48.728Z,12.20
2023-03-28T22:35:34.584Z,12.10
2023-03-28T22:38:20.817Z,12.00
2023-03-28T22:41:07.982Z,11.90
2023-03-28T22:43:53.816Z,11.90
2023-03-28T22:46:41.312Z,11.10
2023-03-28T22:49:30.164Z,11.00
2023-03-28T22:52:16.488Z,11.00
2023-03-28T22:55:02.687Z,10.90
2023-03-28T22:57:51.627Z,10.70
2023-03-28T23:00:39.053Z,11.30
2023-03-28T23:03:24.971Z,11.50
2023-03-28T23:06:11.101Z,11.60
2023-03-28T23:08:58.801Z,11.60
2023-03-28T23:11:45.491Z,11.70
2023-03-28T23:14:31.587Z,11.70
2023-03-28T23:17:19.194Z,11.90
2023-03-28T23:20:14.814Z,11.80
2023-03-28T23:23:01.869Z,11.70
2023-03-28T23:25:47.622Z,11.50
2023-03-28T23:28:33.605Z,11.60
2023-03-28T23:31:19.606Z,11.60
2023-03-28T23:34:05.190Z,11.50
2023-03-28T23:36:52.339Z,11.40
2023-03-28T23:39:38.279Z,11.20
2023-03-28T23:42:24.750Z,11.30
2023-03-28T23:45:12.204Z,11.10
2023-03-28T23:47:58.789Z,11.20
2023-03-28T23:50:44.794Z,11.40
2023-03-28T23:53:30.844Z,11.30
2023-03-28T23:56:19.129Z,11.40
2023-03-28T23:59:04.814Z,11.50
